Monday, October 23, 2017, 12:21 PM CDT
Back to Local

KMCK, Mc Cook Municipal Airport

Location: Mc Cook, NE, United States Lat: 40.2
Local Time: 12:21 PM CDT (17:21 GMT) Lon: -100.583
Time Zone: US/Central Elev: 2578 ft

Show me the last for .
Show Decoded

2017-10-23 11:53 METAR KMCK 231653Z AUTO 34018G26KT 10SM CLR 15/01 A3027 RMK AO2 PK WND
                 35028/1621 SLP246 T01500006 =
2017-10-23 10:53 METAR KMCK 231553Z AUTO 33016KT 10SM BKN110 13/01 A3027 RMK AO2 SLP250 T01330006
                 =
2017-10-23 09:53 METAR KMCK 231453Z AUTO 32014KT 10SM OVC110 12/03 A3025 RMK AO2 SLP243 T01170028
                 53030 =
2017-10-23 08:53 METAR KMCK 231353Z AUTO 33018KT 10SM CLR 11/03 A3021 RMK AO2 PK WND 35029/1310
                 SLP229 T01060028 =
2017-10-23 07:53 METAR KMCK 231253Z AUTO 35018G26KT 10SM CLR 11/02 A3018 RMK AO2 PK WND
                 36036/1219 SLP216 T01110017 =
2017-10-23 06:53 METAR KMCK 231153Z AUTO 35019G26KT 10SM CLR 12/03 A3016 RMK AO2 PK WND
                 35026/1153 PRESRR SLP205 T01170028 10133 20072 51050 =
2017-10-23 05:53 METAR KMCK 231053Z AUTO 35015KT 10SM FEW110 12/02 A3010 RMK AO2 SLP183 T01220022
                 =
2017-10-23 04:53 METAR KMCK 230953Z AUTO 35014KT 10SM CLR 12/02 A3007 RMK AO2 SLP168 T01170017 =
2017-10-23 03:53 METAR KMCK 230853Z AUTO 27009KT 10SM CLR 08/00 A3000 RMK AO2 SLP149 T00780000
                 55000 =
2017-10-23 02:53 METAR KMCK 230753Z AUTO 26007KT 10SM CLR 07/M01 A3000 RMK AO2 SLP149 T00721011 =
2017-10-23 01:53 METAR KMCK 230653Z AUTO 26010KT 10SM CLR 10/M01 A3000 RMK AO2 SLP148 T01001011 =
2017-10-23 00:53 METAR KMCK 230553Z AUTO 25008KT 10SM CLR 08/M02 A3000 RMK AO2 SLP152 T00831017
                 10172 20083 402281017 51002 =
2017-10-22 23:53 METAR KMCK 230453Z AUTO 25009KT 10SM CLR 10/M02 A2999 RMK AO2 SLP151 T01001022 =
2017-10-22 22:53 METAR KMCK 230353Z AUTO 27008KT 10SM CLR 11/M03 A3001 RMK AO2 SLP161 T01111028 =
2017-10-22 21:53 METAR KMCK 230253Z AUTO 25011KT 10SM CLR 13/M03 A3000 RMK AO2 SLP159 T01281033
                 51004 =
2017-10-22 20:53 METAR KMCK 230153Z AUTO 24007KT 10SM CLR 14/M03 A2999 RMK AO2 SLP160 T01391033 =
2017-10-22 19:53 METAR KMCK 230053Z AUTO 21007KT 10SM CLR 16/M03 A2999 RMK AO2 SLP163 T01561033 =
2017-10-22 18:53 METAR KMCK 222353Z AUTO 21007KT 10SM CLR 17/M03 A2998 RMK AO2 SLP157 T01721033
                 10228 20172 58013 =
2017-10-22 17:53 METAR KMCK 222253Z AUTO 23007KT 10SM CLR 21/M04 A3000 RMK AO2 SLP157 T02061044 =
2017-10-22 16:53 METAR KMCK 222153Z AUTO 24012KT 10SM CLR 22/M04 A3001 RMK AO2 SLP162 T02221044 =
2017-10-22 15:53 METAR KMCK 222053Z AUTO 25017G24KT 10SM CLR 22/M06 A3002 RMK AO2 SLP165
                 T02171056 56035 =
2017-10-22 14:53 METAR KMCK 221953Z AUTO 23019G29KT 10SM CLR 21/M07 A3004 RMK AO2 PK WND
                 22029/1952 SLP171 T02111072 =
2017-10-22 13:53 METAR KMCK 221853Z AUTO 23017G29KT 10SM CLR 21/M07 A3008 RMK AO2 PK WND
                 25029/1848 SLP185 T02061067 =
2017-10-22 12:53 METAR KMCK 221753Z AUTO 23015G24KT 10SM CLR 19/M05 A3013 RMK AO2 SLP203
                 T01891050 10189 21017 58016 =

Support USWX by starting your Amazon purchase here.